Airfield :
LOGIN :

Register | Disclaimer

   EN    FR    IT 

 










Legend :    VFR   Marginal VFR   IFR   Intensive IFR   Very Intensive IFR
Visi :
Ceiling :
>= 8 km
>= 3000ft
5 to 8 km
1000 to 3000 ft
1500m to 5 km
500 to 1000 ft
800 to 1500m
200 to 500 ft
< 800m
< 200 ft
Symbols :   Thunderstorms  Fog  Heavy snow  Heavy precipitations  Wind > 20 kt
SIGMETs :     Misc.  Thunderstorms  Icing  Turbulence  Mountain Waves  Volcanic Ashes






- Airport Elevation : 235 ft
- IATA code : BZG


EPBY - Bydgoszcz

CURRENT METAR :
  • 231130Z 27017KT 9999 SCT036 BKN042 BKN047 08/M00 Q1006

EXPIRED METARs :
  • 231100Z 26021KT 9999 BKN037 BKN046 08/M00 Q1007
  • 231030Z 26016G26KT 240V300 9999 SCT033 BKN038 08/01 Q1007
  • 231000Z 24011KT 9999 SCT032 BKN037CB BKN041 07/01 Q1008
  • 230930Z 27014KT 9999 -SHRA SCT032 SCT038CB BKN048 07/00 Q1008
  • 230900Z 27019KT 9999 -SHRA FEW037 BKN043CB 07/M01 Q1009

TAF TAF EPBY
Valid from the 23 at 12:00 until the 24 at 12:00 UTC


231130Z 2312/2412 28015G25KT 9999 BKN040
BECMG 2313/2315 22012KT -RA BKN015 OVC030
PROB40 2317/2324 4000 RA BKN005 OVC010
BECMG 2317/2319 28018KT
TEMPO 2319/2412 28018G32KT
BECMG 2409/2412 CAVOK



MET'MAP, your aeronautical weather chart ! - Copyright ORBIFLY December 2007 - Disclaimer

ORBIFLY MET'MAP TEAM :

Programming & Development : Alexandra Zaïnal
Concept & original design : Baudouin d'Aumeries
Assistance for programming : Marc-Olivier Méhu
Technical & hardware support : Manuel Goepfert

Contact : metmap@orbifly.com




SOURCES & CREDITS :

   NOAA